Cranbrook Airport
CYXC : now visible

Airfield :











YOU CAN JOIN US ON...

 
LOGIN :

Register | Disclaimer

   EN    FR    IT 

 









Legend :    VFR   Marginal VFR   IFR   Intensive IFR   Very Intensive IFR
Visi :
Ceiling :
>= 8 km
>= 3000ft
5 to 8 km
1000 to 3000 ft
1500m to 5 km
500 to 1000 ft
800 to 1500m
200 to 500 ft
< 800m
< 200 ft
Symbols :   Thunderstorms  Fog  Heavy snow  Heavy precipitations  Wind > 20 kt






- Airport Elevation : 3082 ft
- IATA code : YXC


CYXC - Cranbrook

CURRENT METAR :
  • 121800Z 11004KT 100V170 25SM FEW052 BKN150 01/M01 A2978 RMK SC2AC3 SLP119

EXPIRED METARs :
  • 121700Z 11002KT 25SM SCT054 BKN120 M02/M03 A2976 RMK SC3AC3 SLP120
  • 121629Z 26002KT 25SM FEW012 SCT060 BKN120 M02/M04 A2976 RMK SF1SC3AC2 SLP116
  • 121600Z 29007KT 20SM -SN FEW015 BKN060 M02/M03 A2975 RMK SF1SC6 SLP112

TAF TAF CYXC
Valid from the 12 at 13:00 until the 13 at 01:00 UTC


121239Z 1213/1301 VRB03KT P6SM -SN SCT015 OVC040
TEMPO 1213/1215 2SM -SN BKN015 OVC040
FM121500 16006KT P6SM SCT015 BKN050
TEMPO 1215/1219 P6SM -SN BKN015
BECMG 1220/1222 20010KT RMK NXT FCST BY 121900Z



MET'MAP, your aeronautical weather chart ! - Copyright ORBIFLY December 2007 - Disclaimer

ORBIFLY MET'MAP TEAM :

Programming & Development : Alexandra Zaïnal
Concept & original design : Baudouin d'Aumeries
Assistance for programming : Marc-Olivier Méhu
Technical & hardware support : Manuel Goepfert

Contact : metmap@orbifly.com




SOURCES & CREDITS :

   NOAA       Earth
Advisory